createdAt,value
2022-10-24T00:01:32.059Z,13.26
2022-10-24T00:06:35.131Z,13.34
2022-10-24T00:11:39.037Z,13.22
2022-10-24T00:16:42.020Z,13.13
2022-10-24T00:21:45.096Z,13.25
2022-10-24T00:26:48.665Z,13.43
2022-10-24T00:31:51.728Z,13.45
2022-10-24T00:36:55.305Z,13.63
2022-10-24T00:42:01.685Z,13.69
2022-10-24T00:47:09.147Z,13.48
2022-10-24T00:52:14.934Z,13.08
2022-10-24T00:57:38.217Z,13.04
2022-10-24T01:02:42.393Z,12.95
2022-10-24T01:08:23.058Z,13.17
2022-10-24T01:13:33.151Z,13.42
2022-10-24T01:18:54.903Z,13.62
2022-10-24T01:24:28.977Z,14.10
2022-10-24T01:29:57.673Z,14.49
2022-10-24T01:35:16.475Z,14.60
2022-10-24T01:40:31.065Z,14.72
2022-10-24T01:45:37.446Z,15.03
2022-10-24T01:50:45.396Z,15.09
2022-10-24T01:55:50.807Z,15.58
2022-10-24T02:01:01.045Z,16.07
2022-10-24T02:06:23.432Z,16.50
2022-10-24T02:11:27.013Z,16.55
2022-10-24T02:16:31.390Z,16.42
2022-10-24T02:21:43.256Z,16.22
2022-10-24T02:26:46.629Z,16.32
2022-10-24T02:31:58.748Z,16.21
2022-10-24T02:37:05.258Z,15.96
2022-10-24T02:42:11.051Z,15.99
2022-10-24T02:47:16.940Z,16.26
2022-10-24T02:52:20.839Z,16.32
2022-10-24T02:57:25.395Z,16.49
2022-10-24T03:02:28.790Z,16.37
2022-10-24T03:07:31.728Z,16.28
2022-10-24T03:12:35.362Z,16.16
2022-10-24T03:17:38.575Z,16.13
2022-10-24T03:22:42.059Z,15.98
2022-10-24T03:27:46.037Z,15.91
2022-10-24T03:32:50.377Z,15.69
2022-10-24T03:37:54.239Z,15.53
2022-10-24T03:42:57.697Z,15.45
2022-10-24T03:48:01.130Z,15.37
2022-10-24T03:53:04.440Z,15.57
2022-10-24T03:58:07.546Z,15.40
2022-10-24T04:03:11.045Z,15.27
2022-10-24T04:08:14.111Z,14.82
2022-10-24T04:13:17.163Z,14.72
2022-10-24T04:18:20.146Z,14.84
2022-10-24T04:23:23.804Z,14.74
2022-10-24T04:28:28.165Z,14.34
2022-10-24T04:33:31.423Z,14.05
2022-10-24T04:38:34.985Z,14.11
2022-10-24T04:43:38.573Z,14.29
2022-10-24T04:48:42.065Z,13.97
2022-10-24T04:53:45.098Z,13.95
2022-10-24T04:58:48.454Z,13.96
2022-10-24T05:03:51.661Z,14.16
2022-10-24T05:08:55.543Z,13.73
2022-10-24T05:13:58.784Z,13.91
2022-10-24T05:19:02.271Z,13.51
2022-10-24T05:24:05.737Z,13.75
2022-10-24T05:29:09.268Z,14.45
2022-10-24T05:34:12.365Z,14.47
2022-10-24T05:39:16.754Z,14.23
2022-10-24T05:44:20.928Z,15.02
2022-10-24T05:49:24.267Z,15.10
2022-10-24T05:54:33.433Z,15.48
2022-10-24T05:59:46.512Z,16.71
2022-10-24T06:04:51.262Z,17.69
2022-10-24T06:09:54.814Z,18.14
2022-10-24T06:14:59.678Z,22.33
2022-10-24T06:20:02.769Z,25.25
2022-10-24T06:25:07.483Z,27.22
2022-10-24T06:30:12.154Z,28.15
2022-10-24T06:35:16.181Z,29.66
2022-10-24T06:40:19.343Z,29.90
2022-10-24T06:45:24.168Z,30.64
2022-10-24T06:50:27.655Z,31.91
2022-10-24T06:55:30.647Z,33.11
2022-10-24T07:00:35.271Z,33.08
2022-10-24T07:05:38.495Z,32.96
2022-10-24T07:10:42.369Z,33.31
2022-10-24T07:15:45.947Z,34.01
2022-10-24T07:20:50.249Z,34.15
2022-10-24T07:25:53.244Z,34.72
2022-10-24T07:30:56.633Z,34.09
2022-10-24T07:35:59.992Z,34.71
2022-10-24T07:41:07.638Z,34.94
2022-10-24T07:46:13.328Z,35.03
2022-10-24T07:51:16.516Z,35.31
2022-10-24T07:56:19.996Z,35.27
2022-10-24T08:01:26.184Z,35.48
2022-10-24T08:06:31.662Z,35.67
2022-10-24T08:11:35.457Z,35.40
2022-10-24T08:16:42.538Z,35.55
2022-10-24T08:21:45.798Z,35.22
2022-10-24T08:26:50.237Z,34.45
2022-10-24T08:31:55.734Z,34.98
2022-10-24T08:36:59.243Z,35.14
2022-10-24T08:42:06.071Z,35.78
2022-10-24T08:47:28.146Z,36.34
2022-10-24T08:52:37.967Z,35.66
2022-10-24T08:57:44.116Z,35.68
2022-10-24T09:02:54.296Z,35.65
2022-10-24T09:08:03.250Z,35.96
2022-10-24T09:13:15.745Z,35.75
2022-10-24T09:18:35.007Z,35.89
2022-10-24T09:23:38.694Z,35.50
2022-10-24T09:28:42.676Z,34.97
2022-10-24T09:33:48.324Z,34.96
2022-10-24T09:38:52.174Z,35.80
2022-10-24T09:43:57.348Z,35.69
2022-10-24T09:49:07.298Z,35.38
2022-10-24T09:54:20.338Z,34.98
2022-10-24T09:59:47.014Z,34.74
2022-10-24T10:05:18.214Z,34.34
2022-10-24T10:10:22.309Z,33.94
2022-10-24T10:15:39.584Z,34.54
2022-10-24T10:20:44.216Z,33.95
2022-10-24T10:25:48.141Z,34.32
2022-10-24T10:30:55.554Z,33.87
2022-10-24T10:36:06.087Z,33.19
2022-10-24T10:41:34.221Z,32.77
2022-10-24T10:47:01.425Z,33.25
2022-10-24T10:52:24.553Z,32.75
2022-10-24T10:57:36.933Z,31.65
2022-10-24T11:02:54.254Z,31.77
2022-10-24T11:08:25.597Z,31.71
2022-10-24T11:13:37.697Z,31.83
2022-10-24T11:18:46.114Z,31.90
2022-10-24T11:24:01.734Z,31.79
2022-10-24T11:29:31.673Z,31.95
2022-10-24T11:34:52.271Z,32.13
2022-10-24T11:40:01.409Z,31.94
2022-10-24T11:45:17.150Z,32.01
2022-10-24T11:50:28.953Z,32.10
2022-10-24T11:55:39.238Z,32.05
2022-10-24T12:01:13.627Z,31.50
2022-10-24T12:06:27.315Z,31.97
2022-10-24T12:11:53.160Z,31.66
2022-10-24T12:17:48.513Z,32.03
2022-10-24T12:22:54.164Z,31.64
2022-10-24T12:28:00.353Z,32.15
2022-10-24T12:33:04.000Z,32.93
2022-10-24T12:38:29.803Z,32.98
2022-10-24T12:43:38.898Z,32.37
2022-10-24T12:49:10.751Z,31.83
2022-10-24T12:54:15.382Z,31.84
2022-10-24T12:59:29.529Z,31.14
2022-10-24T13:05:12.011Z,31.58
2022-10-24T13:10:39.202Z,31.09
2022-10-24T13:16:15.932Z,31.17
2022-10-24T13:21:51.541Z,31.44
2022-10-24T13:26:58.722Z,31.41
2022-10-24T13:32:04.554Z,31.74
2022-10-24T13:37:15.185Z,31.52
2022-10-24T13:42:39.770Z,30.76
2022-10-24T13:47:52.064Z,30.91
2022-10-24T13:53:00.190Z,31.10
2022-10-24T13:58:06.968Z,31.24
2022-10-24T14:03:19.089Z,31.17
2022-10-24T14:08:30.404Z,31.20
2022-10-24T14:13:43.451Z,31.15
2022-10-24T14:18:47.153Z,30.79
2022-10-24T14:24:01.918Z,30.98
2022-10-24T14:29:05.648Z,30.31
2022-10-24T14:34:21.608Z,29.79
2022-10-24T14:39:25.900Z,29.79
2022-10-24T14:44:30.108Z,29.64
2022-10-24T14:49:37.646Z,29.28
2022-10-24T14:55:02.718Z,29.16
2022-10-24T15:00:07.925Z,29.20
2022-10-24T15:05:17.085Z,28.75
2022-10-24T15:10:28.433Z,28.10
2022-10-24T15:15:46.680Z,27.57
2022-10-24T15:20:53.393Z,26.61
2022-10-24T15:26:27.224Z,26.06
2022-10-24T15:31:34.312Z,25.93
2022-10-24T15:36:41.537Z,24.91
2022-10-24T15:41:44.602Z,24.15
2022-10-24T15:46:49.739Z,23.42
2022-10-24T15:51:53.843Z,22.64
2022-10-24T15:56:59.472Z,22.11
2022-10-24T16:02:05.875Z,21.56
2022-10-24T16:07:11.039Z,21.13
2022-10-24T16:12:15.148Z,20.71
2022-10-24T16:17:18.615Z,20.15
2022-10-24T16:22:22.616Z,19.81
2022-10-24T16:27:25.971Z,19.58
2022-10-24T16:32:29.428Z,19.54
2022-10-24T16:37:33.628Z,19.44
2022-10-24T16:42:37.079Z,19.31
2022-10-24T16:47:40.572Z,19.25
2022-10-24T16:52:45.037Z,19.17
2022-10-24T16:57:49.650Z,19.05
2022-10-24T17:02:56.078Z,19.05
2022-10-24T17:08:01.087Z,18.92
2022-10-24T17:13:07.868Z,18.61
2022-10-24T17:18:13.491Z,18.18
2022-10-24T17:23:23.243Z,17.80
2022-10-24T17:28:32.401Z,17.40
2022-10-24T17:33:37.724Z,17.02
2022-10-24T17:38:47.597Z,16.66
2022-10-24T17:43:50.931Z,16.33
2022-10-24T17:48:57.126Z,15.91
2022-10-24T17:54:01.196Z,15.87
2022-10-24T17:59:04.758Z,15.71
2022-10-24T18:04:08.522Z,15.55
2022-10-24T18:09:12.266Z,15.56
2022-10-24T18:14:16.263Z,15.47
2022-10-24T18:19:19.853Z,15.48
2022-10-24T18:24:23.375Z,15.28
2022-10-24T18:29:26.906Z,15.04
2022-10-24T18:34:30.696Z,14.75
2022-10-24T18:39:34.195Z,14.52
2022-10-24T18:44:38.084Z,14.22
2022-10-24T18:49:41.838Z,14.24
2022-10-24T18:55:05.545Z,14.11
2022-10-24T19:00:09.339Z,14.02
2022-10-24T19:05:24.537Z,13.93
2022-10-24T19:10:28.767Z,13.87
2022-10-24T19:15:31.891Z,13.80
2022-10-24T19:20:36.111Z,13.72
2022-10-24T19:25:39.673Z,13.36
2022-10-24T19:30:44.821Z,13.54
2022-10-24T19:35:49.001Z,13.57
2022-10-24T19:40:54.104Z,13.41
2022-10-24T19:46:14.737Z,13.22
2022-10-24T19:51:19.730Z,13.04
2022-10-24T19:56:26.970Z,12.96
2022-10-24T20:01:31.694Z,12.96
2022-10-24T20:06:34.815Z,12.98
2022-10-24T20:11:38.980Z,12.82
2022-10-24T20:16:42.588Z,12.81
2022-10-24T20:21:45.769Z,12.83
2022-10-24T20:26:49.418Z,12.72
2022-10-24T20:31:52.768Z,12.66
2022-10-24T20:36:55.871Z,12.47
2022-10-24T20:41:59.379Z,12.54
2022-10-24T20:47:02.819Z,12.59
2022-10-24T20:52:06.754Z,12.48
2022-10-24T20:57:10.332Z,12.35
2022-10-24T21:02:13.878Z,12.37
2022-10-24T21:07:17.208Z,12.37
2022-10-24T21:12:20.780Z,12.20
2022-10-24T21:22:32.488Z,12.08
2022-10-24T21:27:36.636Z,11.81
2022-10-24T21:32:39.636Z,11.94
2022-10-24T21:37:43.684Z,12.00
2022-10-24T21:42:47.082Z,11.88
2022-10-24T21:47:50.903Z,11.83
2022-10-24T21:52:54.434Z,11.82
2022-10-24T21:57:57.634Z,11.87
2022-10-24T22:03:01.681Z,11.77
2022-10-24T22:08:05.464Z,11.80
2022-10-24T22:13:09.006Z,11.60
2022-10-24T22:18:14.592Z,11.49
2022-10-24T22:23:18.067Z,11.43
2022-10-24T22:28:21.827Z,11.36
2022-10-24T22:33:34.102Z,11.37
2022-10-24T22:38:37.710Z,11.44
2022-10-24T22:43:41.217Z,11.50
2022-10-24T22:48:49.783Z,11.39
2022-10-24T22:53:54.275Z,11.31
2022-10-24T22:58:57.608Z,11.28
2022-10-24T23:04:39.272Z,11.23
2022-10-24T23:09:42.939Z,11.45
2022-10-24T23:14:47.646Z,11.36
2022-10-24T23:19:51.703Z,11.33
2022-10-24T23:24:57.401Z,11.08
2022-10-24T23:30:02.093Z,11.14
2022-10-24T23:35:05.538Z,11.12
2022-10-24T23:40:12.473Z,11.10
2022-10-24T23:45:17.862Z,11.10
2022-10-24T23:50:43.921Z,11.00
2022-10-24T23:55:47.286Z,10.90
